createdAt,value
2017-02-19T00:00:14.253Z,0
2017-02-19T00:01:14.197Z,0
2017-02-19T00:02:13.803Z,0
2017-02-19T00:03:14.158Z,0
2017-02-19T00:04:14.517Z,0
2017-02-19T00:05:13.739Z,0
2017-02-19T00:06:14.477Z,0
2017-02-19T00:07:14.090Z,0
2017-02-19T00:08:13.650Z,0
2017-02-19T00:09:14.270Z,0
2017-02-19T00:10:14.385Z,0
2017-02-19T00:11:13.976Z,0
2017-02-19T00:12:13.972Z,0
2017-02-19T00:13:13.534Z,0
2017-02-19T00:14:13.878Z,0
2017-02-19T00:15:14.240Z,0
2017-02-19T00:16:14.239Z,0
2017-02-19T00:17:13.792Z,0
2017-02-19T00:18:14.352Z,0
2017-02-19T00:19:13.995Z,0
2017-02-19T00:20:14.101Z,0
2017-02-19T00:21:14.098Z,0
2017-02-19T00:22:13.272Z,0
2017-02-19T00:23:14.054Z,0
2017-02-19T00:24:14.006Z,0
2017-02-19T00:25:13.971Z,0
2017-02-19T00:26:12.785Z,0
2017-02-19T00:27:13.543Z,0
2017-02-19T00:28:13.808Z,0
2017-02-19T00:29:13.496Z,0
2017-02-19T00:30:13.444Z,0
2017-02-19T00:31:13.080Z,0
2017-02-19T00:32:13.419Z,0
2017-02-19T00:33:13.803Z,0
2017-02-19T00:34:13.342Z,0
2017-02-19T00:35:13.708Z,0
2017-02-19T00:36:13.674Z,0
2017-02-19T00:37:12.888Z,0
2017-02-19T00:38:12.856Z,0
2017-02-19T00:39:12.436Z,0
2017-02-19T00:40:13.207Z,0
2017-02-19T00:41:13.182Z,0
2017-02-19T00:42:12.819Z,0
2017-02-19T00:43:13.490Z,0
2017-02-19T00:44:13.086Z,0
2017-02-19T00:45:13.429Z,0
2017-02-19T00:46:13.428Z,0
2017-02-19T00:47:13.037Z,0
2017-02-19T00:48:13.007Z,0
2017-02-19T00:49:13.340Z,0
2017-02-19T00:50:12.971Z,0
2017-02-19T00:51:13.295Z,0
2017-02-19T00:52:13.281Z,0
2017-02-19T00:53:12.833Z,0
2017-02-19T00:54:12.820Z,0
2017-02-19T00:55:13.209Z,0
2017-02-19T00:56:13.154Z,0
2017-02-19T00:57:13.123Z,0
2017-02-19T00:58:12.737Z,0
2017-02-19T00:59:12.308Z,0
2017-02-19T01:00:12.680Z,0
2017-02-19T01:01:13.018Z,0
2017-02-19T01:02:13.049Z,0
2017-02-19T01:03:12.608Z,0
2017-02-19T01:04:12.572Z,0
2017-02-19T01:05:12.547Z,0
2017-02-19T01:06:12.899Z,0
2017-02-19T01:07:12.494Z,0
2017-02-19T01:08:12.892Z,0
2017-02-19T01:09:12.442Z,0
2017-02-19T01:10:12.799Z,0
2017-02-19T01:11:12.421Z,0
2017-02-19T01:12:12.358Z,0
2017-02-19T01:13:11.978Z,0
2017-02-19T01:14:11.916Z,0
2017-02-19T01:15:11.895Z,0
2017-02-19T01:16:12.624Z,0
2017-02-19T01:17:12.227Z,0
2017-02-19T01:18:12.582Z,0
2017-02-19T01:19:12.272Z,0
2017-02-19T01:20:12.568Z,0
2017-02-19T01:21:12.362Z,0
2017-02-19T01:22:11.386Z,0
2017-02-19T01:23:12.469Z,0
2017-02-19T01:24:12.480Z,0
2017-02-19T01:25:12.013Z,0
2017-02-19T01:26:12.016Z,0
2017-02-19T01:27:11.989Z,0
2017-02-19T01:28:11.565Z,0
2017-02-19T01:29:12.300Z,0
2017-02-19T01:30:12.258Z,0
2017-02-19T01:31:12.468Z,0
2017-02-19T01:32:12.288Z,0
2017-02-19T01:33:11.822Z,0
2017-02-19T01:34:12.221Z,0
2017-02-19T01:35:11.752Z,0
2017-02-19T01:36:10.963Z,0
2017-02-19T01:37:11.706Z,0
2017-02-19T01:38:12.082Z,0
2017-02-19T01:39:11.646Z,0
2017-02-19T01:40:12.011Z,0
2017-02-19T01:41:11.208Z,0
2017-02-19T01:42:11.959Z,0
2017-02-19T01:43:11.930Z,0
2017-02-19T01:44:11.911Z,0
2017-02-19T01:45:11.205Z,0
2017-02-19T01:46:11.456Z,0
2017-02-19T01:47:11.830Z,0
2017-02-19T01:48:11.810Z,0
2017-02-19T01:49:11.395Z,0
2017-02-19T01:50:11.737Z,0
2017-02-19T01:51:10.979Z,0
2017-02-19T01:52:11.736Z,0
2017-02-19T01:53:11.282Z,0
2017-02-19T01:54:11.251Z,0
2017-02-19T01:55:10.843Z,0
2017-02-19T01:56:11.583Z,0
2017-02-19T01:57:11.611Z,0
2017-02-19T01:58:10.762Z,0
2017-02-19T01:59:11.195Z,0
2017-02-19T02:00:11.097Z,0
2017-02-19T02:01:11.460Z,0
2017-02-19T02:02:11.425Z,0
2017-02-19T02:03:11.403Z,0
2017-02-19T02:04:10.248Z,0
2017-02-19T02:05:10.971Z,0
2017-02-19T02:06:10.579Z,0
2017-02-19T02:07:10.588Z,0
2017-02-19T02:08:11.280Z,0
2017-02-19T02:09:11.258Z,0
2017-02-19T02:10:11.211Z,0
2017-02-19T02:11:10.438Z,0
2017-02-19T02:12:10.384Z,0
2017-02-19T02:13:10.745Z,0
2017-02-19T02:14:10.766Z,0
2017-02-19T02:15:11.091Z,0
2017-02-19T02:16:11.064Z,0
2017-02-19T02:17:11.026Z,0
2017-02-19T02:18:10.635Z,0
2017-02-19T02:19:10.965Z,0
2017-02-19T02:20:10.955Z,0
2017-02-19T02:21:10.537Z,0
2017-02-19T02:22:10.935Z,0
2017-02-19T02:23:10.128Z,0
2017-02-19T02:24:10.842Z,0
2017-02-19T02:25:10.845Z,0
2017-02-19T02:26:10.855Z,0
2017-02-19T02:27:10.376Z,0
2017-02-19T02:28:10.751Z,0
2017-02-19T02:29:10.699Z,0
2017-02-19T02:30:10.684Z,0
2017-02-19T02:31:10.683Z,0
2017-02-19T02:32:09.860Z,0
2017-02-19T02:33:10.202Z,0
2017-02-19T02:34:10.203Z,0
2017-02-19T02:35:10.199Z,0
2017-02-19T02:36:10.536Z,0
2017-02-19T02:37:10.530Z,0
2017-02-19T02:38:10.102Z,0
2017-02-19T02:39:10.458Z,0
2017-02-19T02:40:10.034Z,0
2017-02-19T02:41:09.673Z,0
2017-02-19T02:42:10.003Z,0
2017-02-19T02:43:10.059Z,0
2017-02-19T02:44:10.333Z,0
2017-02-19T02:45:10.294Z,0
2017-02-19T02:46:09.913Z,0
2017-02-19T02:47:10.248Z,0
2017-02-19T02:48:10.204Z,0
2017-02-19T02:49:09.417Z,0
2017-02-19T02:50:10.180Z,0
2017-02-19T02:51:09.754Z,0
2017-02-19T02:52:10.252Z,0
2017-02-19T02:53:10.081Z,0
2017-02-19T02:54:10.093Z,0
2017-02-19T02:55:10.020Z,0
2017-02-19T02:56:10.006Z,0
2017-02-19T02:57:09.608Z,0
2017-02-19T02:58:09.185Z,0
2017-02-19T02:59:09.911Z,0
2017-02-19T03:00:09.154Z,0
2017-02-19T03:01:09.867Z,0
2017-02-19T03:02:09.837Z,0
2017-02-19T03:03:09.808Z,0
2017-02-19T03:04:09.409Z,0
2017-02-19T03:05:09.396Z,0
2017-02-19T03:06:09.799Z,0
2017-02-19T03:07:09.362Z,0
2017-02-19T03:08:09.683Z,0
2017-02-19T03:09:09.773Z,0
2017-02-19T03:10:09.649Z,0
2017-02-19T03:11:09.609Z,0
2017-02-19T03:12:08.864Z,0
2017-02-19T03:13:09.558Z,0
2017-02-19T03:14:09.547Z,0
2017-02-19T03:15:09.123Z,0
2017-02-19T03:16:08.728Z,0
2017-02-19T03:17:10.028Z,0
2017-02-19T03:18:08.653Z,0
2017-02-19T03:19:09.405Z,0
2017-02-19T03:20:09.382Z,0
2017-02-19T03:21:09.379Z,0
2017-02-19T03:22:09.401Z,0
2017-02-19T03:23:08.938Z,0
2017-02-19T03:24:08.889Z,0
2017-02-19T03:25:09.255Z,0
2017-02-19T03:26:09.213Z,0
2017-02-19T03:27:09.185Z,0
2017-02-19T03:28:09.172Z,0
2017-02-19T03:29:09.156Z,0
2017-02-19T03:30:08.725Z,0
2017-02-19T03:31:09.171Z,0
2017-02-19T03:32:08.796Z,0
2017-02-19T03:33:09.036Z,0
2017-02-19T03:34:08.640Z,0
2017-02-19T03:35:08.619Z,0
2017-02-19T03:36:08.952Z,0
2017-02-19T03:37:09.213Z,0
2017-02-19T03:38:07.760Z,0
2017-02-19T03:39:08.875Z,0
2017-02-19T03:40:08.470Z,0
2017-02-19T03:41:08.838Z,0
2017-02-19T03:42:08.465Z,0
2017-02-19T03:43:08.481Z,0
2017-02-19T03:44:08.253Z,0
2017-02-19T03:45:08.344Z,0
2017-02-19T03:46:08.682Z,0
2017-02-19T03:47:08.304Z,0
2017-02-19T03:48:08.650Z,0
2017-02-19T03:49:08.639Z,0
2017-02-19T03:50:08.628Z,0
2017-02-19T03:51:07.796Z,0
2017-02-19T03:52:08.549Z,0
2017-02-19T03:53:08.502Z,0
2017-02-19T03:54:08.102Z,0
2017-02-19T03:55:08.090Z,0
2017-02-19T03:56:08.448Z,0
2017-02-19T03:57:07.686Z,0
2017-02-19T03:58:07.653Z,0
2017-02-19T03:59:08.380Z,0
2017-02-19T04:00:08.341Z,0
2017-02-19T04:01:08.312Z,0
2017-02-19T04:02:08.290Z,0
2017-02-19T04:03:08.271Z,0
2017-02-19T04:04:08.253Z,0
2017-02-19T04:05:08.233Z,0
2017-02-19T04:06:08.176Z,0
2017-02-19T04:07:08.168Z,0
2017-02-19T04:08:08.141Z,0
2017-02-19T04:09:08.093Z,0
2017-02-19T04:10:08.118Z,0
2017-02-19T04:11:08.064Z,0
2017-02-19T04:12:08.029Z,0
2017-02-19T04:13:07.608Z,0
2017-02-19T04:14:08.026Z,0
2017-02-19T04:15:07.174Z,0
2017-02-19T04:16:07.928Z,0
2017-02-19T04:17:07.895Z,0
2017-02-19T04:18:07.917Z,0
2017-02-19T04:19:07.463Z,0
2017-02-19T04:20:07.817Z,0
2017-02-19T04:21:07.823Z,0
2017-02-19T04:22:07.379Z,0
2017-02-19T04:23:07.750Z,0
2017-02-19T04:24:07.315Z,0
2017-02-19T04:25:07.679Z,0
2017-02-19T04:26:07.287Z,0
2017-02-19T04:27:07.624Z,0
2017-02-19T04:28:07.225Z,0
2017-02-19T04:29:07.194Z,0
2017-02-19T04:30:07.209Z,0
2017-02-19T04:31:07.546Z,0
2017-02-19T04:32:07.508Z,0
2017-02-19T04:33:07.091Z,0
2017-02-19T04:34:07.463Z,0
2017-02-19T04:35:07.421Z,0
2017-02-19T04:36:07.424Z,0
2017-02-19T04:37:07.375Z,0
2017-02-19T04:38:07.339Z,0
2017-02-19T04:39:07.357Z,0
2017-02-19T04:40:07.318Z,0
2017-02-19T04:41:07.289Z,0
2017-02-19T04:42:07.232Z,0
2017-02-19T04:43:06.838Z,0
2017-02-19T04:44:07.187Z,0
2017-02-19T04:45:07.167Z,0
2017-02-19T04:46:07.168Z,0
2017-02-19T04:47:07.184Z,0
2017-02-19T04:48:07.082Z,0
2017-02-19T04:49:07.076Z,0
2017-02-19T04:50:06.645Z,0
2017-02-19T04:51:06.625Z,0
2017-02-19T04:52:06.595Z,0
2017-02-19T04:53:06.957Z,0
2017-02-19T04:54:06.938Z,0
2017-02-19T04:55:06.537Z,0
2017-02-19T04:56:06.908Z,0
2017-02-19T04:57:06.860Z,0
2017-02-19T04:58:06.974Z,0
2017-02-19T04:59:06.790Z,0
2017-02-19T05:00:06.403Z,0
2017-02-19T05:01:06.743Z,0
2017-02-19T05:02:06.738Z,0
2017-02-19T05:03:06.703Z,0
2017-02-19T05:04:06.672Z,0
2017-02-19T05:05:06.658Z,0
2017-02-19T05:06:06.626Z,0
2017-02-19T05:07:06.603Z,0
2017-02-19T05:08:06.571Z,0
2017-02-19T05:09:06.168Z,0
2017-02-19T05:10:06.506Z,0
2017-02-19T05:11:06.097Z,0
2017-02-19T05:12:06.466Z,0
2017-02-19T05:13:06.505Z,0
2017-02-19T05:14:06.422Z,0
2017-02-19T05:15:06.408Z,0
2017-02-19T05:16:06.355Z,0
2017-02-19T05:17:06.357Z,0
2017-02-19T05:18:05.958Z,0
2017-02-19T05:19:06.289Z,0
2017-02-19T05:20:05.919Z,0
2017-02-19T05:21:05.854Z,0
2017-02-19T05:22:06.193Z,0
2017-02-19T05:23:06.181Z,0
2017-02-19T05:24:06.138Z,0
2017-02-19T05:25:06.116Z,0
2017-02-19T05:26:06.090Z,0
2017-02-19T05:27:06.100Z,0
2017-02-19T05:28:05.659Z,0
2017-02-19T05:29:06.033Z,0
2017-02-19T05:30:05.981Z,0
2017-02-19T05:31:05.977Z,0
2017-02-19T05:32:05.956Z,0
2017-02-19T05:33:05.903Z,0
2017-02-19T05:34:05.514Z,0
2017-02-19T05:35:05.898Z,0
2017-02-19T05:36:05.847Z,0
2017-02-19T05:37:05.817Z,0
2017-02-19T05:38:05.395Z,0
2017-02-19T05:39:05.768Z,0
2017-02-19T05:40:05.348Z,0
2017-02-19T05:41:05.313Z,0
2017-02-19T05:42:05.716Z,0
2017-02-19T05:43:05.663Z,0
2017-02-19T05:44:05.625Z,0
2017-02-19T05:45:05.618Z,0
2017-02-19T05:46:05.510Z,0
2017-02-19T05:47:05.567Z,0
2017-02-19T05:48:05.538Z,0
2017-02-19T05:49:05.510Z,0
2017-02-19T05:50:05.508Z,0
2017-02-19T05:51:05.490Z,0
2017-02-19T05:52:05.429Z,0
2017-02-19T05:53:05.002Z,0
2017-02-19T05:54:04.975Z,0
2017-02-19T05:55:05.356Z,0
2017-02-19T05:56:05.329Z,0
2017-02-19T05:57:05.312Z,0
2017-02-19T05:58:05.268Z,0
2017-02-19T05:59:04.849Z,0
2017-02-19T06:00:05.500Z,0
2017-02-19T06:01:05.194Z,0
2017-02-19T06:02:05.149Z,0
2017-02-19T06:03:05.117Z,0
2017-02-19T06:04:05.126Z,0
2017-02-19T06:05:05.088Z,0
2017-02-19T06:06:05.073Z,0
2017-02-19T06:07:05.451Z,0
2017-02-19T06:08:05.006Z,0
2017-02-19T06:09:05.010Z,0
2017-02-19T06:10:04.951Z,0
2017-02-19T06:11:04.970Z,0
2017-02-19T06:12:04.888Z,0
2017-02-19T06:13:04.879Z,0
2017-02-19T06:14:04.919Z,0
2017-02-19T06:15:04.836Z,0
2017-02-19T06:16:04.786Z,0
2017-02-19T06:17:04.780Z,0
2017-02-19T06:18:04.746Z,0
2017-02-19T06:19:04.723Z,0
2017-02-19T06:20:04.702Z,0
2017-02-19T06:21:04.676Z,0
2017-02-19T06:22:04.696Z,0
2017-02-19T06:23:04.628Z,0
2017-02-19T06:24:04.614Z,0
2017-02-19T06:25:04.261Z,0
2017-02-19T06:26:04.557Z,0
2017-02-19T06:27:04.565Z,0
2017-02-19T06:28:04.518Z,5
2017-02-19T06:29:04.473Z,5
2017-02-19T06:30:04.421Z,5
2017-02-19T06:31:04.420Z,5
2017-02-19T06:32:04.013Z,5
2017-02-19T06:33:04.363Z,5
2017-02-19T06:34:04.339Z,5
2017-02-19T06:35:04.306Z,5
2017-02-19T06:36:04.276Z,5
2017-02-19T06:37:04.415Z,5
2017-02-19T06:38:04.223Z,5
2017-02-19T06:39:04.228Z,5
2017-02-19T06:40:04.182Z,5
2017-02-19T06:41:04.170Z,5
2017-02-19T06:42:04.421Z,5
2017-02-19T06:43:04.124Z,5
2017-02-19T06:44:04.083Z,5
2017-02-19T06:45:04.069Z,5
2017-02-19T06:46:04.026Z,10
2017-02-19T06:47:03.673Z,10
2017-02-19T06:48:03.995Z,10
2017-02-19T06:49:04.013Z,10
2017-02-19T06:50:03.936Z,10
2017-02-19T06:51:03.904Z,15
2017-02-19T06:52:03.899Z,15
2017-02-19T06:53:03.865Z,15
2017-02-19T06:54:03.844Z,20
2017-02-19T06:55:03.791Z,20
2017-02-19T06:56:03.830Z,20
2017-02-19T06:57:02.963Z,20
2017-02-19T06:58:03.333Z,25
2017-02-19T06:59:03.677Z,25
2017-02-19T07:00:03.680Z,25
2017-02-19T07:01:03.250Z,30
2017-02-19T07:02:03.645Z,30
2017-02-19T07:03:03.591Z,30
2017-02-19T07:04:03.580Z,30
2017-02-19T07:05:03.533Z,30
2017-02-19T07:06:03.505Z,35
2017-02-19T07:07:03.530Z,35
2017-02-19T07:08:03.453Z,40
2017-02-19T07:09:03.456Z,40
2017-02-19T07:10:03.432Z,45
2017-02-19T07:11:02.986Z,50
2017-02-19T07:12:02.969Z,55
2017-02-19T07:13:03.342Z,55
2017-02-19T07:14:03.540Z,60
2017-02-19T07:15:02.529Z,65
2017-02-19T07:16:03.243Z,70
2017-02-19T07:17:02.856Z,75
2017-02-19T07:18:03.209Z,75
2017-02-19T07:19:03.180Z,75
2017-02-19T07:20:03.156Z,75
2017-02-19T07:21:03.180Z,70
2017-02-19T07:22:03.116Z,70
2017-02-19T07:23:03.121Z,70
2017-02-19T07:24:03.048Z,75
2017-02-19T07:25:03.261Z,75
2017-02-19T07:26:02.629Z,75
2017-02-19T07:27:02.974Z,80
2017-02-19T07:28:02.947Z,80
2017-02-19T07:29:03.207Z,85
2017-02-19T07:30:02.523Z,85
2017-02-19T07:31:02.501Z,90
2017-02-19T07:32:02.857Z,90
2017-02-19T07:33:02.818Z,95
2017-02-19T07:34:02.789Z,95
2017-02-19T07:35:02.776Z,95
2017-02-19T07:36:02.753Z,100
2017-02-19T07:37:02.358Z,100
2017-02-19T07:38:02.312Z,105
2017-02-19T07:39:02.667Z,110
2017-02-19T07:40:02.656Z,115
2017-02-19T07:41:02.681Z,115
2017-02-19T07:42:02.603Z,115
2017-02-19T07:43:02.583Z,120
2017-02-19T07:44:02.549Z,120
2017-02-19T07:45:02.777Z,120
2017-02-19T07:46:02.550Z,120
2017-02-19T07:47:02.478Z,115
2017-02-19T07:48:02.484Z,115
2017-02-19T07:49:02.422Z,115
2017-02-19T07:50:02.410Z,110
2017-02-19T07:51:02.383Z,105
2017-02-19T07:52:02.349Z,105
2017-02-19T07:53:02.329Z,105
2017-02-19T07:54:02.326Z,110
2017-02-19T07:55:02.301Z,110
2017-02-19T07:56:01.865Z,110
2017-02-19T07:57:02.235Z,110
2017-02-19T07:58:02.212Z,115
2017-02-19T07:59:02.183Z,115
2017-02-19T08:00:01.838Z,115
2017-02-19T08:01:02.143Z,115
2017-02-19T08:02:02.112Z,115
2017-02-19T08:03:02.084Z,115
2017-02-19T08:04:01.680Z,115
2017-02-19T08:05:02.065Z,110
2017-02-19T08:06:01.616Z,110
2017-02-19T08:07:01.992Z,110
2017-02-19T08:08:01.951Z,105
2017-02-19T08:09:01.724Z,105
2017-02-19T08:10:01.527Z,100
2017-02-19T08:11:01.643Z,90
2017-02-19T08:12:01.945Z,85
2017-02-19T08:13:01.851Z,80
2017-02-19T08:14:01.807Z,70
2017-02-19T08:15:01.399Z,70
2017-02-19T08:16:01.400Z,70
2017-02-19T08:17:01.815Z,65
2017-02-19T08:18:01.728Z,70
2017-02-19T08:19:01.315Z,75
2017-02-19T08:20:01.674Z,75
2017-02-19T08:21:01.664Z,75
2017-02-19T08:22:01.664Z,80
2017-02-19T08:23:01.618Z,85
2017-02-19T08:24:01.181Z,90
2017-02-19T08:25:01.543Z,90
2017-02-19T08:26:01.544Z,95
2017-02-19T08:27:01.744Z,95
2017-02-19T08:28:01.485Z,100
2017-02-19T08:29:01.436Z,105
2017-02-19T08:30:01.472Z,105
2017-02-19T08:31:01.409Z,110
2017-02-19T08:32:00.977Z,115
2017-02-19T08:33:01.349Z,115
2017-02-19T08:34:00.603Z,110
2017-02-19T08:35:00.904Z,105
2017-02-19T08:36:00.892Z,105
2017-02-19T08:37:01.244Z,110
2017-02-19T08:38:01.228Z,115
2017-02-19T08:39:01.223Z,120
2017-02-19T08:40:01.191Z,125
2017-02-19T08:41:01.233Z,125
2017-02-19T08:42:00.737Z,130
2017-02-19T08:43:00.736Z,125
2017-02-19T08:44:01.102Z,125
2017-02-19T08:45:01.052Z,120
2017-02-19T08:46:01.030Z,120
2017-02-19T08:47:01.034Z,120
2017-02-19T08:48:00.974Z,120
2017-02-19T08:49:00.565Z,115
2017-02-19T08:50:00.930Z,115
2017-02-19T08:51:00.894Z,115
2017-02-19T08:52:00.949Z,120
2017-02-19T08:53:00.862Z,120
2017-02-19T08:54:00.863Z,120
2017-02-19T08:55:00.857Z,120
2017-02-19T08:56:00.847Z,110
2017-02-19T08:57:00.783Z,100
2017-02-19T08:58:00.734Z,90
2017-02-19T08:59:00.745Z,85
2017-02-19T09:00:00.691Z,80
2017-02-19T09:00:59.888Z,85
2017-02-19T09:02:00.255Z,95
2017-02-19T09:03:00.632Z,90
2017-02-19T09:04:00.594Z,85
2017-02-19T09:05:00.575Z,85
2017-02-19T09:06:00.551Z,80
2017-02-19T09:07:00.538Z,80
2017-02-19T09:08:00.123Z,80
2017-02-19T09:09:00.464Z,80
2017-02-19T09:10:00.463Z,90
2017-02-19T09:11:00.416Z,100
2017-02-19T09:12:00.006Z,105
2017-02-19T09:13:00.371Z,105
2017-02-19T09:14:00.333Z,110
2017-02-19T09:15:00.322Z,105
2017-02-19T09:16:00.292Z,105
2017-02-19T09:17:00.300Z,105
2017-02-19T09:18:00.258Z,110
2017-02-19T09:18:59.464Z,120
2017-02-19T09:20:00.221Z,125
2017-02-19T09:20:59.812Z,130
2017-02-19T09:22:00.206Z,130
2017-02-19T09:22:59.756Z,135
2017-02-19T09:24:00.125Z,135
2017-02-19T09:25:00.069Z,145
2017-02-19T09:25:59.668Z,155
2017-02-19T09:27:00.072Z,155
2017-02-19T09:28:00.041Z,160
2017-02-19T09:28:59.982Z,155
2017-02-19T09:29:59.968Z,165
2017-02-19T09:31:00.007Z,165
2017-02-19T09:31:59.925Z,170
2017-02-19T09:32:59.515Z,165
2017-02-19T09:33:59.874Z,155
2017-02-19T09:34:59.844Z,145
2017-02-19T09:35:59.844Z,135
2017-02-19T09:36:59.422Z,135
2017-02-19T09:37:59.767Z,155
2017-02-19T09:38:59.758Z,160
2017-02-19T09:39:59.719Z,150
2017-02-19T09:40:59.734Z,140
2017-02-19T09:41:59.735Z,130
2017-02-19T09:42:59.662Z,130
2017-02-19T09:43:59.687Z,140
2017-02-19T09:44:59.614Z,150
2017-02-19T09:45:59.628Z,160
2017-02-19T09:46:59.163Z,170
2017-02-19T09:47:59.168Z,180
2017-02-19T09:48:59.503Z,190
2017-02-19T09:49:59.479Z,200
2017-02-19T09:50:59.451Z,215
2017-02-19T09:51:59.036Z,225
2017-02-19T09:52:59.445Z,245
2017-02-19T09:53:59.408Z,260
2017-02-19T09:54:58.986Z,265
2017-02-19T09:55:59.363Z,250
2017-02-19T09:56:59.318Z,220
2017-02-19T09:57:59.347Z,195
2017-02-19T09:58:58.893Z,180
2017-02-19T09:59:59.249Z,175
2017-02-19T10:00:59.211Z,170
2017-02-19T10:01:59.214Z,175
2017-02-19T10:02:59.195Z,185
2017-02-19T10:03:59.151Z,185
2017-02-19T10:04:58.773Z,180
2017-02-19T10:05:58.733Z,170
2017-02-19T10:06:59.080Z,165
2017-02-19T10:07:59.072Z,170
2017-02-19T10:08:59.014Z,175
2017-02-19T10:09:59.288Z,190
2017-02-19T10:10:58.607Z,205
2017-02-19T10:11:58.965Z,205
2017-02-19T10:12:58.938Z,200
2017-02-19T10:13:58.954Z,195
2017-02-19T10:14:58.503Z,205
2017-02-19T10:15:58.874Z,210
2017-02-19T10:16:58.853Z,210
2017-02-19T10:17:58.908Z,220
2017-02-19T10:18:58.020Z,240
2017-02-19T10:19:58.404Z,260
2017-02-19T10:20:58.390Z,255
2017-02-19T10:21:58.777Z,245
2017-02-19T10:22:58.743Z,245
2017-02-19T10:23:58.805Z,240
2017-02-19T10:24:58.648Z,230
2017-02-19T10:25:58.269Z,215
2017-02-19T10:26:58.224Z,205
2017-02-19T10:27:57.848Z,195
2017-02-19T10:28:58.574Z,190
2017-02-19T10:29:58.174Z,190
2017-02-19T10:30:58.131Z,190
2017-02-19T10:31:58.501Z,195
2017-02-19T10:32:58.520Z,185
2017-02-19T10:33:58.463Z,150
2017-02-19T10:34:58.457Z,140
2017-02-19T10:35:58.406Z,155
2017-02-19T10:36:58.054Z,165
2017-02-19T10:37:57.960Z,165
2017-02-19T10:38:58.592Z,160
2017-02-19T10:39:58.320Z,155
2017-02-19T10:40:58.272Z,155
2017-02-19T10:41:57.890Z,155
2017-02-19T10:42:58.238Z,160
2017-02-19T10:43:57.833Z,160
2017-02-19T10:44:58.227Z,165
2017-02-19T10:45:58.188Z,150
2017-02-19T10:46:58.162Z,130
2017-02-19T10:47:57.734Z,130
2017-02-19T10:48:58.110Z,125
2017-02-19T10:49:57.707Z,115
2017-02-19T10:50:57.748Z,100
2017-02-19T10:51:58.057Z,100
2017-02-19T10:52:58.004Z,90
2017-02-19T10:53:57.986Z,85
2017-02-19T10:54:57.575Z,80
2017-02-19T10:55:57.967Z,75
2017-02-19T10:56:58.172Z,75
2017-02-19T10:57:57.959Z,85
2017-02-19T10:58:57.912Z,80
2017-02-19T10:59:57.495Z,80
2017-02-19T11:00:57.834Z,80
2017-02-19T11:01:57.421Z,65
2017-02-19T11:02:57.788Z,50
2017-02-19T11:03:57.785Z,45
2017-02-19T11:04:57.354Z,50
2017-02-19T11:05:57.339Z,55
2017-02-19T11:06:57.298Z,50
2017-02-19T11:07:57.660Z,55
2017-02-19T11:08:57.262Z,50
2017-02-19T11:09:57.641Z,50
2017-02-19T11:10:57.599Z,55
2017-02-19T11:11:57.600Z,65
2017-02-19T11:12:57.556Z,65
2017-02-19T11:13:57.523Z,65
2017-02-19T11:14:57.491Z,65
2017-02-19T11:15:57.100Z,55
2017-02-19T11:16:57.103Z,55
2017-02-19T11:17:57.510Z,50
2017-02-19T11:18:57.021Z,55
2017-02-19T11:19:57.376Z,60
2017-02-19T11:20:57.188Z,55
2017-02-19T11:21:57.400Z,60
2017-02-19T11:22:56.551Z,75
2017-02-19T11:23:57.273Z,70
2017-02-19T11:24:57.270Z,70
2017-02-19T11:25:57.254Z,65
2017-02-19T11:26:57.213Z,60
2017-02-19T11:27:57.189Z,55
2017-02-19T11:28:56.398Z,50
2017-02-19T11:29:56.843Z,50
2017-02-19T11:30:56.791Z,50
2017-02-19T11:31:56.730Z,55
2017-02-19T11:32:57.140Z,60
2017-02-19T11:33:57.052Z,55
2017-02-19T11:34:57.083Z,50
2017-02-19T11:35:57.007Z,50
2017-02-19T11:36:56.973Z,50
2017-02-19T11:37:56.960Z,55
2017-02-19T11:38:56.924Z,55
2017-02-19T11:39:56.899Z,60
2017-02-19T11:40:56.885Z,50
2017-02-19T11:41:56.846Z,35
2017-02-19T11:42:56.828Z,40
2017-02-19T11:43:56.405Z,40
2017-02-19T11:44:56.397Z,40
2017-02-19T11:45:56.759Z,40
2017-02-19T11:46:56.719Z,55
2017-02-19T11:47:56.359Z,70
2017-02-19T11:48:56.674Z,70
2017-02-19T11:49:56.648Z,80
2017-02-19T11:50:56.683Z,90
2017-02-19T11:51:56.612Z,95
2017-02-19T11:52:56.207Z,95
2017-02-19T11:53:56.561Z,95
2017-02-19T11:54:56.549Z,95
2017-02-19T11:55:56.545Z,95
2017-02-19T11:56:56.941Z,85
2017-02-19T11:57:55.744Z,100
2017-02-19T11:58:56.440Z,100
2017-02-19T11:59:56.418Z,90
2017-02-19T12:00:56.414Z,80
2017-02-19T12:01:56.389Z,75
2017-02-19T12:02:55.983Z,80
2017-02-19T12:03:55.927Z,60
2017-02-19T12:04:56.289Z,65
2017-02-19T12:05:55.890Z,60
2017-02-19T12:06:56.283Z,55
2017-02-19T12:07:55.832Z,55
2017-02-19T12:08:56.216Z,60
2017-02-19T12:09:56.194Z,70
2017-02-19T12:10:56.177Z,75
2017-02-19T12:11:56.177Z,75
2017-02-19T12:12:56.128Z,70
2017-02-19T12:13:56.096Z,75
2017-02-19T12:14:55.683Z,90
2017-02-19T12:15:56.034Z,125
2017-02-19T12:16:55.987Z,140
2017-02-19T12:17:55.595Z,135
2017-02-19T12:18:56.006Z,120
2017-02-19T12:19:55.953Z,90
2017-02-19T12:20:55.909Z,90
2017-02-19T12:21:55.514Z,90
2017-02-19T12:22:56.367Z,130
2017-02-19T12:23:55.874Z,125
2017-02-19T12:24:55.807Z,165
2017-02-19T12:25:55.770Z,180
2017-02-19T12:26:55.779Z,180
2017-02-19T12:27:55.424Z,155
2017-02-19T12:28:55.718Z,145
2017-02-19T12:29:55.705Z,120
2017-02-19T12:30:55.740Z,115
2017-02-19T12:31:55.639Z,115
2017-02-19T12:32:55.617Z,115
2017-02-19T12:33:55.216Z,120
2017-02-19T12:34:55.183Z,140
2017-02-19T12:35:55.559Z,120
2017-02-19T12:36:55.514Z,100
2017-02-19T12:37:55.534Z,110
2017-02-19T12:38:55.655Z,105
2017-02-19T12:39:55.441Z,75
2017-02-19T12:40:55.436Z,60
2017-02-19T12:41:55.031Z,70
2017-02-19T12:42:54.999Z,85
2017-02-19T12:43:55.368Z,80
2017-02-19T12:44:55.574Z,95
2017-02-19T12:45:55.309Z,90
2017-02-19T12:46:54.944Z,110
2017-02-19T12:47:54.911Z,160
2017-02-19T12:48:54.864Z,180
2017-02-19T12:49:55.215Z,175
2017-02-19T12:50:55.224Z,160
2017-02-19T12:51:55.170Z,120
2017-02-19T12:52:55.143Z,110
2017-02-19T12:53:55.194Z,115
2017-02-19T12:54:55.088Z,105
2017-02-19T12:55:55.057Z,95
2017-02-19T12:56:55.059Z,85
2017-02-19T12:57:54.625Z,85
2017-02-19T12:58:55.014Z,110
2017-02-19T12:59:55.031Z,115
2017-02-19T13:00:54.566Z,95
2017-02-19T13:01:54.533Z,100
2017-02-19T13:02:54.927Z,85
2017-02-19T13:03:54.877Z,105
2017-02-19T13:04:54.840Z,105
2017-02-19T13:05:54.806Z,95
2017-02-19T13:06:54.076Z,90
2017-02-19T13:07:54.400Z,90
2017-02-19T13:08:54.384Z,90
2017-02-19T13:09:54.744Z,95
2017-02-19T13:10:54.311Z,95
2017-02-19T13:11:54.703Z,90
2017-02-19T13:12:54.265Z,90
2017-02-19T13:13:54.668Z,110
2017-02-19T13:14:54.585Z,95
2017-02-19T13:15:54.585Z,95
2017-02-19T13:16:53.784Z,80
2017-02-19T13:17:54.567Z,80
2017-02-19T13:18:54.510Z,95
2017-02-19T13:19:54.544Z,115
2017-02-19T13:20:54.488Z,110
2017-02-19T13:21:54.462Z,120
2017-02-19T13:22:54.441Z,120
2017-02-19T13:23:54.399Z,125
2017-02-19T13:24:54.015Z,125
2017-02-19T13:25:54.334Z,115
2017-02-19T13:26:53.947Z,115
2017-02-19T13:27:54.306Z,125
2017-02-19T13:28:53.492Z,140
2017-02-19T13:29:54.253Z,155
2017-02-19T13:30:54.227Z,130
2017-02-19T13:31:54.217Z,115
2017-02-19T13:32:54.165Z,90
2017-02-19T13:33:54.149Z,90
2017-02-19T13:34:54.173Z,95
2017-02-19T13:35:54.121Z,105
2017-02-19T13:36:54.130Z,125
2017-02-19T13:37:54.066Z,145
2017-02-19T13:38:54.054Z,130
2017-02-19T13:39:54.033Z,100
2017-02-19T13:40:53.990Z,90
2017-02-19T13:41:53.968Z,85
2017-02-19T13:42:53.933Z,90
2017-02-19T13:43:53.553Z,100
2017-02-19T13:44:53.887Z,90
2017-02-19T13:45:53.576Z,95
2017-02-19T13:46:53.866Z,100
2017-02-19T13:47:53.823Z,105
2017-02-19T13:48:53.418Z,100
2017-02-19T13:49:53.768Z,95
2017-02-19T13:50:53.740Z,85
2017-02-19T13:51:52.605Z,85
2017-02-19T13:52:53.320Z,85
2017-02-19T13:53:53.669Z,95
2017-02-19T13:54:53.262Z,105
2017-02-19T13:55:53.609Z,110
2017-02-19T13:56:53.599Z,110
2017-02-19T13:57:53.569Z,115
2017-02-19T13:58:53.607Z,120
2017-02-19T13:59:53.141Z,120
2017-02-19T14:00:53.504Z,115
2017-02-19T14:01:53.087Z,100
2017-02-19T14:02:53.443Z,95
2017-02-19T14:03:53.424Z,90
2017-02-19T14:04:53.005Z,90
2017-02-19T14:05:53.378Z,90
2017-02-19T14:06:53.378Z,100
2017-02-19T14:07:52.936Z,105
2017-02-19T14:08:53.358Z,125
2017-02-19T14:09:52.913Z,110
2017-02-19T14:10:52.093Z,110
2017-02-19T14:11:53.218Z,90
2017-02-19T14:12:52.825Z,80
2017-02-19T14:13:53.205Z,75
2017-02-19T14:15:07.685Z,70
2017-02-19T14:15:53.161Z,65
2017-02-19T14:16:52.357Z,70
2017-02-19T14:17:52.745Z,75
2017-02-19T14:18:53.094Z,75
2017-02-19T14:19:53.058Z,70
2017-02-19T14:20:52.617Z,55